createdAt,value
2017-07-31T00:00:11.893Z,94721.70
2017-07-31T00:02:39.618Z,94725.65
2017-07-31T00:05:07.381Z,94726.22
2017-07-31T00:07:35.098Z,94728.97
2017-07-31T00:10:02.852Z,94731.17
2017-07-31T00:12:30.613Z,94728.99
2017-07-31T00:14:58.348Z,94730.31
2017-07-31T00:17:26.136Z,94726.64
2017-07-31T00:19:54.062Z,94727.30
2017-07-31T00:22:21.941Z,94719.09
2017-07-31T00:24:49.719Z,94721.30
2017-07-31T00:27:17.429Z,94721.13
2017-07-31T00:29:45.179Z,94714.75
2017-07-31T00:32:12.906Z,94716.34
2017-07-31T00:34:41.111Z,94712.88
2017-07-31T00:37:08.865Z,94712.17
2017-07-31T00:39:36.569Z,94711.80
2017-07-31T00:42:04.470Z,94709.39
2017-07-31T00:44:32.181Z,94703.03
2017-07-31T00:46:59.884Z,94700.68
2017-07-31T00:49:27.619Z,94715.45
2017-07-31T00:51:55.384Z,94715.16
2017-07-31T00:54:23.284Z,94719.97
2017-07-31T00:56:51.069Z,94715.19
2017-07-31T00:59:19.105Z,94717.19
2017-07-31T01:01:46.828Z,94723.90
2017-07-31T01:04:14.559Z,94724.19
2017-07-31T01:06:42.309Z,94722.20
2017-07-31T01:09:10.008Z,94724.31
2017-07-31T01:11:37.768Z,94727.50
2017-07-31T01:14:05.473Z,94731.74
2017-07-31T01:16:33.231Z,94735.34
2017-07-31T01:19:00.950Z,94721.55
2017-07-31T01:21:28.705Z,94728.14
2017-07-31T01:23:56.459Z,94730.16
2017-07-31T01:26:24.212Z,94716.88
2017-07-31T01:28:52.005Z,94720.32
2017-07-31T01:31:19.789Z,94722.33
2017-07-31T01:33:47.549Z,94737.98
2017-07-31T01:36:16.320Z,94730.00
2017-07-31T01:38:44.195Z,94725.58
2017-07-31T01:41:11.917Z,94726.03
2017-07-31T01:43:39.632Z,94721.34
2017-07-31T01:46:07.415Z,94722.12
2017-07-31T01:48:35.126Z,94721.11
2017-07-31T01:51:03.928Z,94718.89
2017-07-31T01:53:31.691Z,94721.83
2017-07-31T01:55:59.393Z,94717.81
2017-07-31T01:58:27.186Z,94727.23
2017-07-31T02:00:55.266Z,94735.38
2017-07-31T02:03:23.014Z,94737.54
2017-07-31T02:05:51.057Z,94739.41
2017-07-31T02:08:18.789Z,94740.20
2017-07-31T02:10:46.526Z,94734.17
2017-07-31T02:13:14.252Z,94736.16
2017-07-31T02:15:41.979Z,94738.08
2017-07-31T02:18:09.746Z,94746.99
2017-07-31T02:20:37.499Z,94739.80
2017-07-31T02:23:05.209Z,94738.80
2017-07-31T02:25:32.926Z,94730.83
2017-07-31T02:28:00.852Z,94741.79
2017-07-31T02:30:28.562Z,94736.92
2017-07-31T02:32:56.448Z,94723.83
2017-07-31T02:35:24.252Z,94721.95
2017-07-31T02:37:52.050Z,94728.69
2017-07-31T02:40:19.969Z,94741.00
2017-07-31T02:42:47.719Z,94749.03
2017-07-31T02:45:15.434Z,94740.52
2017-07-31T02:47:43.168Z,94753.27
2017-07-31T02:50:10.954Z,94740.70
2017-07-31T02:52:38.669Z,94733.70
2017-07-31T02:55:06.429Z,94738.16
2017-07-31T02:57:34.142Z,94738.31
2017-07-31T03:00:01.849Z,94751.77
2017-07-31T03:02:29.611Z,94751.78
2017-07-31T03:04:57.500Z,94755.02
2017-07-31T03:07:25.529Z,94752.43
2017-07-31T03:09:53.291Z,94751.80
2017-07-31T03:12:21.040Z,94771.23
2017-07-31T03:14:48.777Z,94775.34
2017-07-31T03:17:16.503Z,94782.37
2017-07-31T03:19:44.263Z,94783.56
2017-07-31T03:22:12.018Z,94779.14
2017-07-31T03:24:39.739Z,94776.39
2017-07-31T03:27:07.447Z,94763.80
2017-07-31T03:29:36.651Z,94764.22
2017-07-31T03:32:04.351Z,94757.89
2017-07-31T03:34:32.101Z,94764.02
2017-07-31T03:36:59.803Z,94762.96
2017-07-31T03:39:27.764Z,94775.20
2017-07-31T03:41:55.475Z,94784.73
2017-07-31T03:44:23.407Z,94761.56
2017-07-31T03:46:51.236Z,94784.91
2017-07-31T03:49:18.972Z,94784.00
2017-07-31T03:51:46.674Z,94786.48
2017-07-31T03:54:14.412Z,94794.82
2017-07-31T03:56:42.207Z,94801.60
2017-07-31T03:59:09.966Z,94808.13
2017-07-31T04:01:37.680Z,94816.32
2017-07-31T04:04:05.419Z,94812.70
2017-07-31T04:06:33.125Z,94810.73
2017-07-31T04:09:01.071Z,94814.39
2017-07-31T04:11:28.792Z,94816.23
2017-07-31T04:13:56.572Z,94811.78
2017-07-31T04:16:24.353Z,94819.59
2017-07-31T04:18:52.282Z,94821.16
2017-07-31T04:21:20.159Z,94823.21
2017-07-31T04:23:47.880Z,94823.48
2017-07-31T04:26:15.749Z,94821.27
2017-07-31T04:28:43.707Z,94822.58
2017-07-31T04:31:11.411Z,94817.23
2017-07-31T04:33:51.507Z,94819.84
2017-07-31T04:36:19.457Z,94827.00
2017-07-31T04:38:47.156Z,94826.09
2017-07-31T04:41:14.964Z,94825.28
2017-07-31T04:43:42.700Z,94822.44
2017-07-31T04:46:11.031Z,94816.32
2017-07-31T04:48:38.799Z,94818.67
2017-07-31T04:51:06.579Z,94813.20
2017-07-31T04:53:34.279Z,94815.02
2017-07-31T04:56:02.002Z,94819.42
2017-07-31T04:58:29.703Z,94821.49
2017-07-31T05:00:58.267Z,94826.70
2017-07-31T05:03:26.056Z,94829.30
2017-07-31T05:05:53.856Z,94831.63
2017-07-31T05:08:21.742Z,94830.70
2017-07-31T05:10:49.487Z,94832.64
2017-07-31T05:13:17.241Z,94841.85
2017-07-31T05:15:44.944Z,94848.74
2017-07-31T05:18:12.681Z,94850.89
2017-07-31T05:20:40.868Z,94848.53
2017-07-31T05:23:08.571Z,94856.02
2017-07-31T05:25:36.311Z,94850.33
2017-07-31T05:28:04.016Z,94847.54
2017-07-31T05:30:31.768Z,94852.07
2017-07-31T05:32:59.468Z,94840.27
2017-07-31T05:35:27.248Z,94846.83
2017-07-31T05:37:55.004Z,94848.74
2017-07-31T05:40:22.816Z,94846.13
2017-07-31T05:42:50.547Z,94850.30
2017-07-31T05:45:18.256Z,94859.06
2017-07-31T05:47:45.972Z,94852.04
2017-07-31T05:50:13.835Z,94859.67
2017-07-31T05:52:41.569Z,94856.23
2017-07-31T05:55:09.267Z,94863.91
2017-07-31T05:57:37.144Z,94860.66
2017-07-31T06:00:04.848Z,94858.27
2017-07-31T06:02:32.591Z,94857.80
2017-07-31T06:05:00.304Z,94847.05
2017-07-31T06:07:28.060Z,94850.48
2017-07-31T06:09:56.081Z,94848.36
2017-07-31T06:12:23.803Z,94850.32
2017-07-31T06:14:51.791Z,94853.72
2017-07-31T06:17:19.614Z,94853.99
2017-07-31T06:19:47.318Z,94856.76
2017-07-31T06:22:15.029Z,94851.27
2017-07-31T06:24:42.769Z,94857.16
2017-07-31T06:27:10.494Z,94858.53
2017-07-31T06:29:38.243Z,94852.83
2017-07-31T06:32:05.947Z,94852.25
2017-07-31T06:34:33.648Z,94852.30
2017-07-31T06:37:01.343Z,94852.46
2017-07-31T06:39:29.052Z,94846.69
2017-07-31T06:41:56.806Z,94862.69
2017-07-31T06:44:24.578Z,94861.86
2017-07-31T06:46:52.370Z,94864.91
2017-07-31T06:49:20.137Z,94861.73
2017-07-31T06:51:48.044Z,94868.13
2017-07-31T06:54:15.747Z,94863.28
2017-07-31T06:56:43.545Z,94870.41
2017-07-31T06:59:11.289Z,94873.73
2017-07-31T07:01:38.994Z,94875.08
2017-07-31T07:04:06.696Z,94875.35
2017-07-31T07:06:34.451Z,94876.89
2017-07-31T07:09:02.232Z,94878.14
2017-07-31T07:11:29.938Z,94888.39
2017-07-31T07:13:57.891Z,94891.55
2017-07-31T07:16:25.634Z,94885.21
2017-07-31T07:18:53.426Z,94890.98
2017-07-31T07:21:21.224Z,94892.67
2017-07-31T07:23:48.958Z,94881.61
2017-07-31T07:26:16.672Z,94885.55
2017-07-31T07:28:44.480Z,94885.47
2017-07-31T07:31:12.196Z,94884.19
2017-07-31T07:33:39.950Z,94883.14
2017-07-31T07:36:07.656Z,94883.32
2017-07-31T07:38:35.951Z,94885.92
2017-07-31T07:41:03.651Z,94892.06
2017-07-31T07:43:31.347Z,94880.16
2017-07-31T07:45:59.052Z,94880.44
2017-07-31T07:48:26.781Z,94877.22
2017-07-31T07:50:54.895Z,94878.94
2017-07-31T07:53:22.992Z,94882.51
2017-07-31T07:55:51.766Z,94881.38
2017-07-31T07:58:19.511Z,94884.48
2017-07-31T08:00:47.212Z,94893.64
2017-07-31T08:03:14.912Z,94895.05
2017-07-31T08:05:42.795Z,94900.09
2017-07-31T08:08:10.835Z,94892.23
2017-07-31T08:10:38.531Z,94894.77
2017-07-31T08:13:06.231Z,94882.31
2017-07-31T08:15:33.932Z,94880.24
2017-07-31T08:18:01.663Z,94874.55
2017-07-31T08:20:29.364Z,94881.25
2017-07-31T08:22:57.145Z,94876.84
2017-07-31T08:25:25.081Z,94881.35
2017-07-31T08:27:53.030Z,94883.44
2017-07-31T08:30:24.155Z,94880.31
2017-07-31T08:32:52.103Z,94885.95
2017-07-31T08:35:20.838Z,94885.03
2017-07-31T08:37:48.540Z,94879.20
2017-07-31T08:40:16.700Z,94882.55
2017-07-31T08:42:44.436Z,94881.69
2017-07-31T08:45:12.173Z,94876.83
2017-07-31T08:47:40.013Z,94873.69
2017-07-31T08:50:07.708Z,94875.94
2017-07-31T08:52:35.456Z,94869.81
2017-07-31T08:55:03.164Z,94870.36
2017-07-31T08:57:30.880Z,94880.49
2017-07-31T08:59:58.685Z,94882.52
2017-07-31T09:02:29.995Z,94879.18
2017-07-31T09:04:57.867Z,94882.22
2017-07-31T09:07:25.613Z,94890.88
2017-07-31T09:09:53.397Z,94889.95
2017-07-31T09:12:21.223Z,94878.95
2017-07-31T09:14:49.027Z,94877.03
2017-07-31T09:17:16.779Z,94882.52
2017-07-31T09:19:44.500Z,94876.48
2017-07-31T09:22:12.245Z,94887.09
2017-07-31T09:24:39.944Z,94892.64
2017-07-31T09:27:07.669Z,94878.73
2017-07-31T09:29:35.407Z,94880.27
2017-07-31T09:32:03.352Z,94890.33
2017-07-31T09:34:31.108Z,94893.22
2017-07-31T09:36:58.891Z,94891.58
2017-07-31T09:39:26.681Z,94890.59
2017-07-31T09:41:54.500Z,94883.37
2017-07-31T09:44:22.312Z,94888.24
2017-07-31T09:46:50.148Z,94892.66
2017-07-31T09:49:17.961Z,94891.57
2017-07-31T09:51:45.655Z,94899.94
2017-07-31T09:54:13.379Z,94902.70
2017-07-31T09:56:42.255Z,94902.66
2017-07-31T09:59:09.959Z,94897.02
2017-07-31T10:01:37.803Z,94890.02
2017-07-31T10:04:05.512Z,94888.27
2017-07-31T10:06:33.203Z,94881.75
2017-07-31T10:09:00.908Z,94889.43
2017-07-31T10:11:28.693Z,94887.41
2017-07-31T10:13:56.492Z,94896.62
2017-07-31T10:16:24.369Z,94899.49
2017-07-31T10:18:52.173Z,94904.13
2017-07-31T10:21:19.991Z,94897.40
2017-07-31T10:23:47.736Z,94896.78
2017-07-31T10:26:15.472Z,94893.67
2017-07-31T10:28:43.224Z,94902.94
2017-07-31T10:31:10.923Z,94907.83
2017-07-31T10:33:38.634Z,94902.25
2017-07-31T10:36:06.396Z,94900.33
2017-07-31T10:38:34.092Z,94900.17
2017-07-31T10:41:01.856Z,94906.35
2017-07-31T10:43:29.596Z,94913.03
2017-07-31T10:45:57.357Z,94905.97
2017-07-31T10:48:25.188Z,94908.38
2017-07-31T10:50:52.947Z,94919.97
2017-07-31T10:53:20.883Z,94912.16
2017-07-31T10:55:48.584Z,94914.02
2017-07-31T10:58:16.280Z,94922.07
2017-07-31T11:00:44.247Z,94916.11
2017-07-31T11:03:12.195Z,94912.41
2017-07-31T11:05:40.013Z,94919.66
2017-07-31T11:08:07.851Z,94916.55
2017-07-31T11:10:35.807Z,94921.75
2017-07-31T11:13:03.863Z,94914.39
2017-07-31T11:15:31.933Z,94910.22
2017-07-31T11:18:00.082Z,94927.88
2017-07-31T11:20:28.478Z,94929.41
2017-07-31T11:22:56.901Z,94933.61
2017-07-31T11:25:25.338Z,94928.48
2017-07-31T11:27:53.575Z,94931.52
2017-07-31T11:30:21.512Z,94929.33
2017-07-31T11:32:49.235Z,94932.28
2017-07-31T11:35:17.017Z,94935.66
2017-07-31T11:37:44.729Z,94933.03
2017-07-31T11:40:12.420Z,94937.38
2017-07-31T11:42:40.172Z,94937.84
2017-07-31T11:45:07.904Z,94938.47
2017-07-31T11:47:35.603Z,94939.23
2017-07-31T11:50:04.433Z,94944.28
2017-07-31T11:52:32.127Z,94938.97
2017-07-31T11:54:59.895Z,94935.10
2017-07-31T11:57:27.620Z,94943.11
2017-07-31T11:59:55.396Z,94947.33
2017-07-31T12:02:23.244Z,94935.50
2017-07-31T12:04:51.079Z,94934.70
2017-07-31T12:07:18.807Z,94928.20
2017-07-31T12:09:46.627Z,94943.65
2017-07-31T12:12:14.475Z,94945.00
2017-07-31T12:14:42.264Z,94940.37
2017-07-31T12:17:09.972Z,94921.18
2017-07-31T12:19:37.664Z,94922.09
2017-07-31T12:22:05.427Z,94911.22
2017-07-31T12:24:33.200Z,94925.34
2017-07-31T12:27:00.951Z,94927.73
2017-07-31T12:29:28.652Z,94939.86
2017-07-31T12:31:56.542Z,94936.00
2017-07-31T12:34:24.302Z,94939.95
2017-07-31T12:36:52.082Z,94945.78
2017-07-31T12:39:19.861Z,94950.59
2017-07-31T12:41:47.661Z,94950.11
2017-07-31T12:44:15.516Z,94944.77
2017-07-31T12:46:43.212Z,94937.50
2017-07-31T12:49:10.953Z,94946.09
2017-07-31T12:51:38.653Z,94949.80
2017-07-31T12:54:06.356Z,94962.22
2017-07-31T12:56:34.067Z,94960.88
2017-07-31T12:59:01.768Z,94958.70
2017-07-31T13:01:29.508Z,94956.30
2017-07-31T13:03:57.245Z,94947.94
2017-07-31T13:06:25.026Z,94938.58
2017-07-31T13:08:52.817Z,94928.97
2017-07-31T13:11:20.659Z,94940.91
2017-07-31T13:13:49.409Z,94944.92
2017-07-31T13:16:17.115Z,94944.14
2017-07-31T13:18:44.848Z,94944.45
2017-07-31T13:21:13.105Z,94946.95
2017-07-31T13:23:40.976Z,94953.80
2017-07-31T13:26:08.678Z,94949.70
2017-07-31T13:28:36.377Z,94957.45
2017-07-31T13:31:04.080Z,94960.14
2017-07-31T13:33:31.787Z,94949.34
2017-07-31T13:35:59.539Z,94940.87
2017-07-31T13:38:27.252Z,94924.78
2017-07-31T13:40:55.117Z,94929.19
2017-07-31T13:43:22.876Z,94935.39
2017-07-31T13:45:50.667Z,94939.65
2017-07-31T13:48:18.631Z,94941.12
2017-07-31T13:50:46.400Z,94941.50
2017-07-31T13:53:14.255Z,94942.76
2017-07-31T13:55:42.161Z,94943.17
2017-07-31T13:58:09.915Z,94940.09
2017-07-31T14:00:37.620Z,94934.64
2017-07-31T14:03:05.316Z,94922.64
2017-07-31T14:05:33.036Z,94928.80
2017-07-31T14:08:00.779Z,94930.97
2017-07-31T14:10:28.488Z,94930.64
2017-07-31T14:12:56.333Z,94929.09
2017-07-31T14:15:24.134Z,94934.22
2017-07-31T14:17:52.038Z,94923.58
2017-07-31T14:20:21.363Z,94936.30
2017-07-31T14:22:49.336Z,94935.06
2017-07-31T14:25:17.173Z,94939.75
2017-07-31T14:27:45.191Z,94928.18
2017-07-31T14:30:13.221Z,94947.67
2017-07-31T14:32:40.932Z,94952.34
2017-07-31T14:35:08.679Z,94951.29
2017-07-31T14:37:36.428Z,94956.18
2017-07-31T14:40:04.127Z,94953.66
2017-07-31T14:42:31.836Z,94950.02
2017-07-31T14:44:59.564Z,94941.70
2017-07-31T14:47:27.289Z,94941.80
2017-07-31T14:49:55.000Z,94941.41
2017-07-31T14:52:22.765Z,94944.39
2017-07-31T14:54:50.603Z,94942.11
2017-07-31T14:57:18.348Z,94948.33
2017-07-31T14:59:46.780Z,94940.02
2017-07-31T15:02:14.492Z,94943.90
2017-07-31T15:04:42.271Z,94945.97
2017-07-31T15:07:09.967Z,94947.08
2017-07-31T15:09:37.716Z,94947.13
2017-07-31T15:12:06.975Z,94940.31
2017-07-31T15:14:34.782Z,94942.20
2017-07-31T15:17:02.544Z,94938.84
2017-07-31T15:19:30.244Z,94939.77
2017-07-31T15:21:57.956Z,94947.37
2017-07-31T15:24:25.719Z,94951.96
2017-07-31T15:26:53.475Z,94957.98
2017-07-31T15:29:21.309Z,94942.39
2017-07-31T15:31:49.086Z,94940.64
2017-07-31T15:34:16.797Z,94948.92
2017-07-31T15:36:44.492Z,94946.13
2017-07-31T15:39:12.215Z,94949.31
2017-07-31T15:41:40.041Z,94946.33
2017-07-31T15:44:07.731Z,94945.62
2017-07-31T15:46:35.432Z,94940.99
2017-07-31T15:49:03.140Z,94935.73
2017-07-31T15:51:30.840Z,94920.86
2017-07-31T15:53:58.563Z,94928.69
2017-07-31T15:56:26.343Z,94922.02
2017-07-31T15:58:54.127Z,94920.17
2017-07-31T16:01:21.892Z,94924.73
2017-07-31T16:03:49.621Z,94926.06
2017-07-31T16:06:17.315Z,94930.47
2017-07-31T16:08:45.013Z,94926.30
2017-07-31T16:11:12.724Z,94934.27
2017-07-31T16:13:40.476Z,94936.96
2017-07-31T16:16:08.300Z,94928.84
2017-07-31T16:18:35.995Z,94937.61
2017-07-31T16:21:03.718Z,94937.52
2017-07-31T16:23:31.558Z,94939.95
2017-07-31T16:25:59.256Z,94928.09
2017-07-31T16:28:27.005Z,94922.97
2017-07-31T16:30:54.796Z,94924.67
2017-07-31T16:33:22.677Z,94923.19
2017-07-31T16:35:50.432Z,94922.52
2017-07-31T16:38:35.908Z,94932.63
2017-07-31T16:41:03.637Z,94915.13
2017-07-31T16:43:46.221Z,94917.31
2017-07-31T16:46:19.731Z,94926.98
2017-07-31T16:48:47.491Z,94919.71
2017-07-31T16:51:15.192Z,94918.62
2017-07-31T16:53:42.920Z,94914.61
2017-07-31T16:56:10.686Z,94921.80
2017-07-31T16:58:38.432Z,94931.26
2017-07-31T17:01:06.129Z,94921.48
2017-07-31T17:03:33.823Z,94912.98
2017-07-31T17:06:01.544Z,94905.61
2017-07-31T17:08:29.240Z,94896.56
2017-07-31T17:10:56.996Z,94897.69
2017-07-31T17:13:24.756Z,94896.70
2017-07-31T17:15:52.612Z,94898.15
2017-07-31T17:18:20.518Z,94902.41
2017-07-31T17:20:48.228Z,94902.00
2017-07-31T17:23:15.932Z,94904.94
2017-07-31T17:25:43.660Z,94898.25
2017-07-31T17:28:13.737Z,94898.94
2017-07-31T17:30:41.484Z,94896.72
2017-07-31T17:33:09.181Z,94901.25
2017-07-31T17:35:36.920Z,94904.10
2017-07-31T17:38:05.943Z,94907.34
2017-07-31T17:40:33.670Z,94907.00
2017-07-31T17:43:02.639Z,94899.81
2017-07-31T17:45:30.347Z,94895.44
2017-07-31T17:47:58.120Z,94890.77
2017-07-31T17:50:25.876Z,94898.42
2017-07-31T17:52:53.619Z,94902.66
2017-07-31T17:55:21.345Z,94894.30
2017-07-31T17:57:49.047Z,94899.19
2017-07-31T18:00:16.820Z,94903.36
2017-07-31T18:02:44.517Z,94905.56
2017-07-31T18:05:12.245Z,94915.25
2017-07-31T18:07:39.996Z,94912.06
2017-07-31T18:10:07.739Z,94915.74
2017-07-31T18:12:35.439Z,94917.44
2017-07-31T18:15:03.148Z,94917.22
2017-07-31T18:17:30.847Z,94910.75
2017-07-31T18:19:58.548Z,94910.23
2017-07-31T18:22:26.257Z,94907.13
2017-07-31T18:24:54.085Z,94905.59
2017-07-31T18:27:21.829Z,94910.86
2017-07-31T18:29:49.540Z,94906.19
2017-07-31T18:32:17.292Z,94906.02
2017-07-31T18:34:44.987Z,94903.50
2017-07-31T18:37:12.732Z,94902.31
2017-07-31T18:39:40.559Z,94904.10
2017-07-31T18:42:08.327Z,94905.22
2017-07-31T18:44:36.048Z,94913.73
2017-07-31T18:47:03.745Z,94908.38
2017-07-31T18:49:31.448Z,94903.50
2017-07-31T18:51:59.186Z,94918.92
2017-07-31T18:54:27.008Z,94928.30
2017-07-31T18:56:54.715Z,94925.43
2017-07-31T18:59:22.464Z,94919.86
2017-07-31T19:01:50.221Z,94908.87
2017-07-31T19:04:17.928Z,94911.05
2017-07-31T19:06:45.789Z,94913.53
2017-07-31T19:09:13.900Z,94912.84
2017-07-31T19:11:41.758Z,94906.14
2017-07-31T19:14:09.772Z,94925.75
2017-07-31T19:16:37.467Z,94925.78
2017-07-31T19:19:05.160Z,94922.85
2017-07-31T19:21:32.860Z,94925.92
2017-07-31T19:24:00.555Z,94937.98
2017-07-31T19:26:28.255Z,94934.81
2017-07-31T19:28:56.039Z,94942.36
2017-07-31T19:31:23.760Z,94949.86
2017-07-31T19:33:51.508Z,94952.48
2017-07-31T19:36:19.255Z,94962.62
2017-07-31T19:38:47.001Z,94969.40
2017-07-31T19:41:14.771Z,94972.83
2017-07-31T19:43:42.484Z,94969.73
2017-07-31T19:46:10.202Z,94975.52
2017-07-31T19:48:37.911Z,94968.55
2017-07-31T19:51:05.611Z,94965.05
2017-07-31T19:53:33.307Z,94960.77
2017-07-31T19:56:01.009Z,94957.27
2017-07-31T19:58:28.767Z,94957.25
2017-07-31T20:00:56.514Z,94953.30
2017-07-31T20:03:24.274Z,94951.46
2017-07-31T20:05:52.096Z,94949.27
2017-07-31T20:08:19.856Z,94955.92
2017-07-31T20:10:47.775Z,94959.09
2017-07-31T20:13:15.532Z,94953.58
2017-07-31T20:15:43.245Z,94950.33
2017-07-31T20:18:11.003Z,94945.59
2017-07-31T20:20:38.700Z,94944.95
2017-07-31T20:23:06.613Z,94951.58
2017-07-31T20:25:34.307Z,94956.83
2017-07-31T20:28:02.016Z,94949.31
2017-07-31T20:30:29.721Z,94946.95
2017-07-31T20:32:57.469Z,94953.03
2017-07-31T20:35:25.236Z,94944.72
2017-07-31T20:37:52.957Z,94948.23
2017-07-31T20:40:20.892Z,94946.83
2017-07-31T20:42:48.675Z,94948.36
2017-07-31T20:45:16.371Z,94945.17
2017-07-31T20:47:44.325Z,94946.64
2017-07-31T20:50:12.043Z,94950.34
2017-07-31T20:52:39.764Z,94951.83
2017-07-31T20:55:07.464Z,94953.73
2017-07-31T20:57:35.840Z,94946.44
2017-07-31T21:00:03.880Z,94943.02
2017-07-31T21:02:31.619Z,94943.33
2017-07-31T21:04:59.648Z,94960.85
2017-07-31T21:07:27.353Z,94959.08
2017-07-31T21:09:56.740Z,94964.59
2017-07-31T21:12:24.517Z,94961.11
2017-07-31T21:14:52.324Z,94963.73
2017-07-31T21:17:20.127Z,94974.58
2017-07-31T21:19:47.833Z,94975.63
2017-07-31T21:22:15.561Z,94975.70
2017-07-31T21:24:43.296Z,94988.66
2017-07-31T21:27:11.061Z,94996.41
2017-07-31T21:29:38.760Z,95000.53
2017-07-31T21:32:06.508Z,94999.14
2017-07-31T21:34:34.214Z,94993.16
2017-07-31T21:37:02.023Z,94999.72
2017-07-31T21:39:29.786Z,95017.03
2017-07-31T21:41:57.579Z,95027.59
2017-07-31T21:44:26.375Z,95015.10
2017-07-31T21:46:54.147Z,95010.78
2017-07-31T21:49:21.920Z,95029.37
2017-07-31T21:51:49.660Z,95034.42
2017-07-31T21:54:31.087Z,95000.94
2017-07-31T21:56:58.836Z,94970.99
2017-07-31T21:59:26.791Z,94978.47
2017-07-31T22:01:54.726Z,94989.12
2017-07-31T22:04:22.488Z,95001.46
2017-07-31T22:06:50.282Z,94984.45
